sensor_id;sensor_type;location;lat;lon;timestamp;P1;durP1;ratioP1;P2;durP2;ratioP2
17794;SDS011;9021;50.882;4.326;2023-02-28T00:01:20;6.13;;;4.00;;
17794;SDS011;9021;50.882;4.326;2023-02-28T00:03:47;5.65;;;3.95;;
17794;SDS011;9021;50.882;4.326;2023-02-28T00:06:13;5.75;;;4.22;;
17794;SDS011;9021;50.882;4.326;2023-02-28T00:08:38;7.70;;;3.95;;
17794;SDS011;9021;50.882;4.326;2023-02-28T00:11:05;6.60;;;3.88;;
17794;SDS011;9021;50.882;4.326;2023-02-28T00:13:33;7.53;;;4.22;;
17794;SDS011;9021;50.882;4.326;2023-02-28T00:16:03;6.35;;;4.15;;
17794;SDS011;9021;50.882;4.326;2023-02-28T00:18:34;8.00;;;4.40;;
17794;SDS011;9021;50.882;4.326;2023-02-28T00:23:26;8.68;;;4.20;;
17794;SDS011;9021;50.882;4.326;2023-02-28T00:25:52;6.82;;;4.25;;
17794;SDS011;9021;50.882;4.326;2023-02-28T00:28:18;5.82;;;4.10;;
17794;SDS011;9021;50.882;4.326;2023-02-28T00:33:10;4.65;;;3.88;;
17794;SDS011;9021;50.882;4.326;2023-02-28T00:35:36;8.57;;;4.00;;
17794;SDS011;9021;50.882;4.326;2023-02-28T00:38:02;8.98;;;3.90;;
17794;SDS011;9021;50.882;4.326;2023-02-28T00:40:28;5.55;;;3.88;;
17794;SDS011;9021;50.882;4.326;2023-02-28T00:45:19;7.07;;;4.10;;
17794;SDS011;9021;50.882;4.326;2023-02-28T00:47:45;5.30;;;4.38;;
17794;SDS011;9021;50.882;4.326;2023-02-28T00:50:14;4.55;;;3.65;;
17794;SDS011;9021;50.882;4.326;2023-02-28T00:52:46;5.75;;;4.07;;
17794;SDS011;9021;50.882;4.326;2023-02-28T00:55:12;5.80;;;3.90;;
17794;SDS011;9021;50.882;4.326;2023-02-28T00:57:38;6.38;;;3.75;;
17794;SDS011;9021;50.882;4.326;2023-02-28T01:00:04;6.18;;;4.03;;
17794;SDS011;9021;50.882;4.326;2023-02-28T01:02:30;7.13;;;4.20;;
17794;SDS011;9021;50.882;4.326;2023-02-28T01:04:56;9.50;;;4.65;;
17794;SDS011;9021;50.882;4.326;2023-02-28T01:07:22;8.90;;;4.68;;
17794;SDS011;9021;50.882;4.326;2023-02-28T01:12:13;7.30;;;4.65;;
17794;SDS011;9021;50.882;4.326;2023-02-28T01:14:39;8.68;;;4.85;;
17794;SDS011;9021;50.882;4.326;2023-02-28T01:17:05;6.30;;;4.65;;
17794;SDS011;9021;50.882;4.326;2023-02-28T01:19:30;7.70;;;4.72;;
17794;SDS011;9021;50.882;4.326;2023-02-28T01:21:56;7.60;;;4.85;;
17794;SDS011;9021;50.882;4.326;2023-02-28T01:24:25;10.65;;;4.70;;
17794;SDS011;9021;50.882;4.326;2023-02-28T01:26:50;7.47;;;4.88;;
17794;SDS011;9021;50.882;4.326;2023-02-28T01:29:16;8.75;;;5.10;;
17794;SDS011;9021;50.882;4.326;2023-02-28T01:31:41;10.98;;;5.22;;
17794;SDS011;9021;50.882;4.326;2023-02-28T01:34:07;9.38;;;5.05;;
17794;SDS011;9021;50.882;4.326;2023-02-28T01:36:32;7.00;;;5.15;;
17794;SDS011;9021;50.882;4.326;2023-02-28T01:38:58;7.00;;;4.78;;
17794;SDS011;9021;50.882;4.326;2023-02-28T01:41:25;6.30;;;4.72;;
17794;SDS011;9021;50.882;4.326;2023-02-28T01:43:54;8.52;;;4.75;;
17794;SDS011;9021;50.882;4.326;2023-02-28T01:46:23;10.02;;;5.03;;
17794;SDS011;9021;50.882;4.326;2023-02-28T01:48:54;10.00;;;4.78;;
17794;SDS011;9021;50.882;4.326;2023-02-28T01:51:22;6.63;;;4.80;;
17794;SDS011;9021;50.882;4.326;2023-02-28T01:53:54;11.82;;;5.38;;
17794;SDS011;9021;50.882;4.326;2023-02-28T01:56:24;6.90;;;4.85;;
17794;SDS011;9021;50.882;4.326;2023-02-28T01:58:54;7.65;;;5.07;;
17794;SDS011;9021;50.882;4.326;2023-02-28T02:01:20;8.88;;;5.57;;
17794;SDS011;9021;50.882;4.326;2023-02-28T02:03:51;7.70;;;4.97;;
17794;SDS011;9021;50.882;4.326;2023-02-28T02:06:33;7.20;;;5.40;;
17794;SDS011;9021;50.882;4.326;2023-02-28T02:09:04;7.25;;;5.60;;
17794;SDS011;9021;50.882;4.326;2023-02-28T02:11:31;6.78;;;5.20;;
17794;SDS011;9021;50.882;4.326;2023-02-28T02:19:46;8.60;;;5.55;;
17794;SDS011;9021;50.882;4.326;2023-02-28T02:30:46;9.80;;;5.70;;
17794;SDS011;9021;50.882;4.326;2023-02-28T02:39:02;10.10;;;6.10;;
17794;SDS011;9021;50.882;4.326;2023-02-28T02:41:51;10.70;;;5.93;;
17794;SDS011;9021;50.882;4.326;2023-02-28T02:44:20;7.82;;;6.05;;
17794;SDS011;9021;50.882;4.326;2023-02-28T02:47:09;10.07;;;6.40;;
17794;SDS011;9021;50.882;4.326;2023-02-28T02:49:39;9.43;;;6.47;;
17794;SDS011;9021;50.882;4.326;2023-02-28T02:52:11;7.18;;;6.28;;
17794;SDS011;9021;50.882;4.326;2023-02-28T02:54:41;9.77;;;5.78;;
17794;SDS011;9021;50.882;4.326;2023-02-28T02:57:11;11.13;;;6.47;;
17794;SDS011;9021;50.882;4.326;2023-02-28T02:59:42;9.25;;;6.50;;
17794;SDS011;9021;50.882;4.326;2023-02-28T03:02:09;11.82;;;6.45;;
17794;SDS011;9021;50.882;4.326;2023-02-28T03:04:45;11.88;;;6.68;;
17794;SDS011;9021;50.882;4.326;2023-02-28T03:07:16;8.93;;;6.55;;
17794;SDS011;9021;50.882;4.326;2023-02-28T03:09:50;9.00;;;6.25;;
17794;SDS011;9021;50.882;4.326;2023-02-28T03:12:17;9.00;;;6.10;;
17794;SDS011;9021;50.882;4.326;2023-02-28T03:22:51;10.63;;;7.45;;
17794;SDS011;9021;50.882;4.326;2023-02-28T03:33:50;12.27;;;7.97;;
17794;SDS011;9021;50.882;4.326;2023-02-28T03:36:35;14.73;;;7.10;;
17794;SDS011;9021;50.882;4.326;2023-02-28T03:39:09;11.50;;;7.53;;
17794;SDS011;9021;50.882;4.326;2023-02-28T03:42:00;11.98;;;7.72;;
17794;SDS011;9021;50.882;4.326;2023-02-28T03:44:32;12.05;;;7.57;;
17794;SDS011;9021;50.882;4.326;2023-02-28T03:47:14;13.65;;;7.72;;
17794;SDS011;9021;50.882;4.326;2023-02-28T03:49:45;14.15;;;8.15;;
17794;SDS011;9021;50.882;4.326;2023-02-28T03:52:34;10.98;;;7.10;;
17794;SDS011;9021;50.882;4.326;2023-02-28T03:55:06;11.77;;;7.97;;
17794;SDS011;9021;50.882;4.326;2023-02-28T04:00:20;11.95;;;7.35;;
17794;SDS011;9021;50.882;4.326;2023-02-28T04:02:53;11.13;;;7.68;;
17794;SDS011;9021;50.882;4.326;2023-02-28T04:05:20;11.48;;;7.43;;
17794;SDS011;9021;50.882;4.326;2023-02-28T04:07:46;12.30;;;7.43;;
17794;SDS011;9021;50.882;4.326;2023-02-28T04:10:12;12.25;;;7.32;;
17794;SDS011;9021;50.882;4.326;2023-02-28T04:15:03;11.55;;;7.30;;
17794;SDS011;9021;50.882;4.326;2023-02-28T04:17:30;8.38;;;6.68;;
17794;SDS011;9021;50.882;4.326;2023-02-28T04:19:56;12.05;;;7.05;;
17794;SDS011;9021;50.882;4.326;2023-02-28T04:22:22;11.27;;;6.80;;
17794;SDS011;9021;50.882;4.326;2023-02-28T04:24:50;10.45;;;6.60;;
17794;SDS011;9021;50.882;4.326;2023-02-28T04:27:16;10.15;;;6.70;;
17794;SDS011;9021;50.882;4.326;2023-02-28T04:29:42;10.30;;;7.50;;
17794;SDS011;9021;50.882;4.326;2023-02-28T04:32:09;10.73;;;7.65;;
17794;SDS011;9021;50.882;4.326;2023-02-28T04:34:35;9.80;;;7.25;;
17794;SDS011;9021;50.882;4.326;2023-02-28T04:37:01;13.48;;;7.43;;
17794;SDS011;9021;50.882;4.326;2023-02-28T04:39:28;11.07;;;7.43;;
17794;SDS011;9021;50.882;4.326;2023-02-28T04:41:54;11.80;;;7.30;;
17794;SDS011;9021;50.882;4.326;2023-02-28T04:44:20;10.75;;;7.55;;
17794;SDS011;9021;50.882;4.326;2023-02-28T04:46:47;11.65;;;7.20;;
17794;SDS011;9021;50.882;4.326;2023-02-28T04:49:13;10.82;;;7.20;;
17794;SDS011;9021;50.882;4.326;2023-02-28T04:51:39;10.65;;;7.78;;
17794;SDS011;9021;50.882;4.326;2023-02-28T04:56:31;7.78;;;6.97;;
17794;SDS011;9021;50.882;4.326;2023-02-28T04:58:57;9.63;;;7.03;;
17794;SDS011;9021;50.882;4.326;2023-02-28T05:01:29;8.40;;;7.32;;
17794;SDS011;9021;50.882;4.326;2023-02-28T05:03:57;9.32;;;7.03;;
17794;SDS011;9021;50.882;4.326;2023-02-28T05:06:26;9.80;;;7.38;;
17794;SDS011;9021;50.882;4.326;2023-02-28T05:08:52;10.05;;;7.38;;
17794;SDS011;9021;50.882;4.326;2023-02-28T05:11:19;11.38;;;7.70;;
17794;SDS011;9021;50.882;4.326;2023-02-28T05:13:47;8.05;;;6.93;;
17794;SDS011;9021;50.882;4.326;2023-02-28T05:16:13;11.93;;;7.10;;
17794;SDS011;9021;50.882;4.326;2023-02-28T05:18:39;9.25;;;7.43;;
17794;SDS011;9021;50.882;4.326;2023-02-28T05:21:05;10.82;;;6.95;;
17794;SDS011;9021;50.882;4.326;2023-02-28T05:23:42;12.23;;;7.40;;
17794;SDS011;9021;50.882;4.326;2023-02-28T05:26:08;9.95;;;7.18;;
17794;SDS011;9021;50.882;4.326;2023-02-28T05:28:33;13.57;;;7.40;;
17794;SDS011;9021;50.882;4.326;2023-02-28T05:30:59;7.95;;;6.65;;
17794;SDS011;9021;50.882;4.326;2023-02-28T05:33:24;10.70;;;7.13;;
17794;SDS011;9021;50.882;4.326;2023-02-28T05:35:50;12.82;;;7.32;;
17794;SDS011;9021;50.882;4.326;2023-02-28T05:38:16;10.77;;;8.02;;
17794;SDS011;9021;50.882;4.326;2023-02-28T05:40:42;8.90;;;6.60;;
17794;SDS011;9021;50.882;4.326;2023-02-28T05:43:09;9.43;;;7.55;;
17794;SDS011;9021;50.882;4.326;2023-02-28T05:45:36;14.15;;;6.95;;
17794;SDS011;9021;50.882;4.326;2023-02-28T05:48:02;9.10;;;7.68;;
17794;SDS011;9021;50.882;4.326;2023-02-28T05:50:28;10.57;;;7.00;;
17794;SDS011;9021;50.882;4.326;2023-02-28T05:52:53;11.43;;;6.95;;
17794;SDS011;9021;50.882;4.326;2023-02-28T05:55:19;11.43;;;6.93;;
17794;SDS011;9021;50.882;4.326;2023-02-28T05:57:45;13.48;;;7.35;;
17794;SDS011;9021;50.882;4.326;2023-02-28T06:00:11;9.90;;;6.80;;
17794;SDS011;9021;50.882;4.326;2023-02-28T06:02:38;10.15;;;6.53;;
17794;SDS011;9021;50.882;4.326;2023-02-28T06:05:05;11.65;;;6.60;;
17794;SDS011;9021;50.882;4.326;2023-02-28T06:07:37;17.17;;;8.70;;
17794;SDS011;9021;50.882;4.326;2023-02-28T06:10:03;11.88;;;7.03;;
17794;SDS011;9021;50.882;4.326;2023-02-28T06:12:29;9.43;;;6.38;;
17794;SDS011;9021;50.882;4.326;2023-02-28T06:14:54;13.52;;;7.40;;
17794;SDS011;9021;50.882;4.326;2023-02-28T06:17:20;13.25;;;6.97;;
17794;SDS011;9021;50.882;4.326;2023-02-28T06:19:46;15.57;;;7.28;;
17794;SDS011;9021;50.882;4.326;2023-02-28T06:22:12;11.45;;;7.00;;
17794;SDS011;9021;50.882;4.326;2023-02-28T06:24:38;11.65;;;7.32;;
17794;SDS011;9021;50.882;4.326;2023-02-28T06:27:04;9.38;;;6.55;;
17794;SDS011;9021;50.882;4.326;2023-02-28T06:29:31;15.43;;;10.05;;
17794;SDS011;9021;50.882;4.326;2023-02-28T06:31:57;11.05;;;6.82;;
17794;SDS011;9021;50.882;4.326;2023-02-28T06:34:23;9.52;;;6.72;;
17794;SDS011;9021;50.882;4.326;2023-02-28T06:36:49;11.02;;;6.85;;
17794;SDS011;9021;50.882;4.326;2023-02-28T06:39:16;10.93;;;6.95;;
17794;SDS011;9021;50.882;4.326;2023-02-28T06:44:11;9.15;;;6.63;;
17794;SDS011;9021;50.882;4.326;2023-02-28T06:46:41;9.38;;;6.55;;
17794;SDS011;9021;50.882;4.326;2023-02-28T06:49:09;8.68;;;7.00;;
17794;SDS011;9021;50.882;4.326;2023-02-28T06:51:36;11.43;;;6.80;;
17794;SDS011;9021;50.882;4.326;2023-02-28T06:54:03;11.23;;;7.00;;
17794;SDS011;9021;50.882;4.326;2023-02-28T06:56:30;9.50;;;6.90;;
17794;SDS011;9021;50.882;4.326;2023-02-28T06:58:56;12.07;;;6.97;;
17794;SDS011;9021;50.882;4.326;2023-02-28T07:01:21;9.23;;;7.00;;
17794;SDS011;9021;50.882;4.326;2023-02-28T07:03:48;16.05;;;7.30;;
17794;SDS011;9021;50.882;4.326;2023-02-28T07:06:18;15.70;;;7.03;;
17794;SDS011;9021;50.882;4.326;2023-02-28T07:08:45;14.10;;;7.40;;
17794;SDS011;9021;50.882;4.326;2023-02-28T07:11:11;10.65;;;6.63;;
17794;SDS011;9021;50.882;4.326;2023-02-28T07:13:36;13.43;;;5.75;;
17794;SDS011;9021;50.882;4.326;2023-02-28T07:16:03;13.43;;;6.53;;
17794;SDS011;9021;50.882;4.326;2023-02-28T07:18:30;12.15;;;6.10;;
17794;SDS011;9021;50.882;4.326;2023-02-28T07:20:57;10.40;;;7.28;;
17794;SDS011;9021;50.882;4.326;2023-02-28T07:23:23;10.43;;;6.43;;
17794;SDS011;9021;50.882;4.326;2023-02-28T07:28:15;6.05;;;5.43;;
17794;SDS011;9021;50.882;4.326;2023-02-28T07:30:41;10.55;;;6.40;;
17794;SDS011;9021;50.882;4.326;2023-02-28T07:35:33;9.93;;;5.90;;
17794;SDS011;9021;50.882;4.326;2023-02-28T07:37:59;9.00;;;5.97;;
17794;SDS011;9021;50.882;4.326;2023-02-28T07:40:25;7.50;;;5.88;;
17794;SDS011;9021;50.882;4.326;2023-02-28T07:42:51;11.00;;;6.38;;
17794;SDS011;9021;50.882;4.326;2023-02-28T07:45:16;11.18;;;7.20;;
17794;SDS011;9021;50.882;4.326;2023-02-28T07:47:42;8.75;;;5.30;;
17794;SDS011;9021;50.882;4.326;2023-02-28T07:50:09;20.33;;;5.80;;
17794;SDS011;9021;50.882;4.326;2023-02-28T07:52:37;11.98;;;4.57;;
17794;SDS011;9021;50.882;4.326;2023-02-28T07:57:29;10.55;;;4.43;;
17794;SDS011;9021;50.882;4.326;2023-02-28T07:59:55;11.00;;;4.13;;
17794;SDS011;9021;50.882;4.326;2023-02-28T08:02:20;5.50;;;4.03;;
17794;SDS011;9021;50.882;4.326;2023-02-28T08:04:46;7.20;;;3.78;;
17794;SDS011;9021;50.882;4.326;2023-02-28T08:07:13;7.53;;;4.13;;
17794;SDS011;9021;50.882;4.326;2023-02-28T08:09:39;6.57;;;3.58;;
17794;SDS011;9021;50.882;4.326;2023-02-28T08:12:06;5.70;;;3.63;;
17794;SDS011;9021;50.882;4.326;2023-02-28T08:14:32;8.57;;;3.88;;
17794;SDS011;9021;50.882;4.326;2023-02-28T08:16:58;6.15;;;3.55;;
17794;SDS011;9021;50.882;4.326;2023-02-28T08:19:24;8.32;;;3.70;;
17794;SDS011;9021;50.882;4.326;2023-02-28T08:21:49;4.63;;;2.80;;
17794;SDS011;9021;50.882;4.326;2023-02-28T08:24:15;4.15;;;2.97;;
17794;SDS011;9021;50.882;4.326;2023-02-28T08:26:40;5.40;;;3.30;;
17794;SDS011;9021;50.882;4.326;2023-02-28T08:29:06;5.68;;;3.25;;
17794;SDS011;9021;50.882;4.326;2023-02-28T08:31:32;4.05;;;2.85;;
17794;SDS011;9021;50.882;4.326;2023-02-28T08:33:57;7.57;;;3.28;;
17794;SDS011;9021;50.882;4.326;2023-02-28T08:36:24;4.35;;;2.95;;
17794;SDS011;9021;50.882;4.326;2023-02-28T08:38:51;4.47;;;2.90;;
17794;SDS011;9021;50.882;4.326;2023-02-28T08:41:17;3.72;;;2.60;;
17794;SDS011;9021;50.882;4.326;2023-02-28T08:43:42;3.42;;;2.70;;
17794;SDS011;9021;50.882;4.326;2023-02-28T08:46:10;4.80;;;2.80;;
17794;SDS011;9021;50.882;4.326;2023-02-28T08:48:39;5.78;;;3.22;;
17794;SDS011;9021;50.882;4.326;2023-02-28T08:51:12;7.88;;;3.00;;
17794;SDS011;9021;50.882;4.326;2023-02-28T08:53:41;6.78;;;3.05;;
17794;SDS011;9021;50.882;4.326;2023-02-28T08:56:10;3.40;;;2.45;;
17794;SDS011;9021;50.882;4.326;2023-02-28T08:58:38;4.28;;;2.33;;
17794;SDS011;9021;50.882;4.326;2023-02-28T09:01:09;4.57;;;2.30;;
17794;SDS011;9021;50.882;4.326;2023-02-28T09:03:39;3.58;;;2.00;;
17794;SDS011;9021;50.882;4.326;2023-02-28T09:06:11;4.30;;;2.08;;
17794;SDS011;9021;50.882;4.326;2023-02-28T09:08:37;4.00;;;2.30;;
17794;SDS011;9021;50.882;4.326;2023-02-28T09:13:29;4.30;;;2.55;;
17794;SDS011;9021;50.882;4.326;2023-02-28T09:15:59;2.80;;;2.13;;
17794;SDS011;9021;50.882;4.326;2023-02-28T09:18:26;5.35;;;2.30;;
17794;SDS011;9021;50.882;4.326;2023-02-28T09:20:52;4.45;;;2.40;;
17794;SDS011;9021;50.882;4.326;2023-02-28T09:23:18;11.77;;;2.92;;
17794;SDS011;9021;50.882;4.326;2023-02-28T09:25:50;2.95;;;2.40;;
17794;SDS011;9021;50.882;4.326;2023-02-28T09:28:18;6.85;;;2.65;;
17794;SDS011;9021;50.882;4.326;2023-02-28T09:30:44;7.28;;;2.80;;
17794;SDS011;9021;50.882;4.326;2023-02-28T09:33:12;3.38;;;2.08;;
17794;SDS011;9021;50.882;4.326;2023-02-28T09:35:39;2.80;;;1.88;;
17794;SDS011;9021;50.882;4.326;2023-02-28T09:40:34;4.80;;;2.30;;
17794;SDS011;9021;50.882;4.326;2023-02-28T09:43:02;7.05;;;2.75;;
17794;SDS011;9021;50.882;4.326;2023-02-28T09:47:58;6.70;;;2.97;;
17794;SDS011;9021;50.882;4.326;2023-02-28T09:50:36;4.65;;;2.45;;
17794;SDS011;9021;50.882;4.326;2023-02-28T09:53:11;3.17;;;2.20;;
17794;SDS011;9021;50.882;4.326;2023-02-28T10:03:55;4.97;;;2.13;;
17794;SDS011;9021;50.882;4.326;2023-02-28T10:06:44;3.13;;;2.03;;
17794;SDS011;9021;50.882;4.326;2023-02-28T10:09:25;3.42;;;2.30;;
17794;SDS011;9021;50.882;4.326;2023-02-28T10:11:56;3.10;;;2.08;;
17794;SDS011;9021;50.882;4.326;2023-02-28T10:14:29;2.20;;;2.00;;
17794;SDS011;9021;50.882;4.326;2023-02-28T10:16:59;3.42;;;2.17;;
17794;SDS011;9021;50.882;4.326;2023-02-28T10:20:20;2.97;;;1.92;;
17794;SDS011;9021;50.882;4.326;2023-02-28T10:22:25;3.05;;;2.00;;
17794;SDS011;9021;50.882;4.326;2023-02-28T10:24:53;3.83;;;2.13;;
17794;SDS011;9021;50.882;4.326;2023-02-28T10:27:25;5.00;;;2.10;;
17794;SDS011;9021;50.882;4.326;2023-02-28T10:29:55;5.68;;;1.70;;
17794;SDS011;9021;50.882;4.326;2023-02-28T10:32:23;3.85;;;1.80;;
17794;SDS011;9021;50.882;4.326;2023-02-28T10:37:59;8.38;;;1.77;;
17794;SDS011;9021;50.882;4.326;2023-02-28T10:40:34;5.30;;;1.67;;
17794;SDS011;9021;50.882;4.326;2023-02-28T10:43:01;4.05;;;2.17;;
17794;SDS011;9021;50.882;4.326;2023-02-28T10:45:29;3.72;;;1.65;;
17794;SDS011;9021;50.882;4.326;2023-02-28T10:48:48;2.60;;;1.90;;
17794;SDS011;9021;50.882;4.326;2023-02-28T11:01:22;2.15;;;1.20;;
17794;SDS011;9021;50.882;4.326;2023-02-28T11:03:48;1.52;;;1.30;;
17794;SDS011;9021;50.882;4.326;2023-02-28T11:08:52;2.10;;;1.33;;
17794;SDS011;9021;50.882;4.326;2023-02-28T11:11:20;2.40;;;1.60;;
17794;SDS011;9021;50.882;4.326;2023-02-28T11:13:48;3.50;;;1.33;;
17794;SDS011;9021;50.882;4.326;2023-02-28T11:16:17;4.45;;;1.25;;
17794;SDS011;9021;50.882;4.326;2023-02-28T11:21:21;1.80;;;1.40;;
17794;SDS011;9021;50.882;4.326;2023-02-28T11:23:48;2.40;;;1.27;;
17794;SDS011;9021;50.882;4.326;2023-02-28T11:26:16;2.42;;;1.42;;
17794;SDS011;9021;50.882;4.326;2023-02-28T11:29:11;2.17;;;1.42;;
17794;SDS011;9021;50.882;4.326;2023-02-28T11:32:04;2.50;;;1.58;;
17794;SDS011;9021;50.882;4.326;2023-02-28T11:34:35;2.60;;;1.80;;
17794;SDS011;9021;50.882;4.326;2023-02-28T11:37:02;2.33;;;1.58;;
17794;SDS011;9021;50.882;4.326;2023-02-28T11:39:30;4.03;;;1.60;;
17794;SDS011;9021;50.882;4.326;2023-02-28T11:42:11;7.20;;;1.83;;
17794;SDS011;9021;50.882;4.326;2023-02-28T11:45:03;2.75;;;1.33;;
17794;SDS011;9021;50.882;4.326;2023-02-28T11:47:38;3.85;;;1.70;;
17794;SDS011;9021;50.882;4.326;2023-02-28T12:12:33;2.30;;;1.73;;
17794;SDS011;9021;50.882;4.326;2023-02-28T12:15:31;2.85;;;1.92;;
17794;SDS011;9021;50.882;4.326;2023-02-28T12:18:06;1.73;;;1.35;;
17794;SDS011;9021;50.882;4.326;2023-02-28T12:28:41;3.08;;;1.75;;
17794;SDS011;9021;50.882;4.326;2023-02-28T12:31:14;2.95;;;1.85;;
17794;SDS011;9021;50.882;4.326;2023-02-28T12:33:52;2.47;;;1.70;;
17794;SDS011;9021;50.882;4.326;2023-02-28T12:36:22;2.35;;;1.60;;
17794;SDS011;9021;50.882;4.326;2023-02-28T12:39:03;1.90;;;1.38;;
17794;SDS011;9021;50.882;4.326;2023-02-28T12:41:53;3.40;;;1.75;;
17794;SDS011;9021;50.882;4.326;2023-02-28T12:44:32;4.30;;;1.60;;
17794;SDS011;9021;50.882;4.326;2023-02-28T12:47:03;5.93;;;1.70;;
17794;SDS011;9021;50.882;4.326;2023-02-28T12:49:33;3.03;;;1.50;;
17794;SDS011;9021;50.882;4.326;2023-02-28T12:52:02;1.48;;;1.30;;
17794;SDS011;9021;50.882;4.326;2023-02-28T12:54:35;2.83;;;1.65;;
17794;SDS011;9021;50.882;4.326;2023-02-28T12:57:09;1.88;;;1.55;;
17794;SDS011;9021;50.882;4.326;2023-02-28T12:59:51;1.58;;;1.35;;
17794;SDS011;9021;50.882;4.326;2023-02-28T13:05:29;2.08;;;1.38;;
17794;SDS011;9021;50.882;4.326;2023-02-28T13:11:06;4.40;;;2.13;;
17794;SDS011;9021;50.882;4.326;2023-02-28T13:13:25;2.42;;;1.58;;
17794;SDS011;9021;50.882;4.326;2023-02-28T13:16:07;3.08;;;1.60;;
17794;SDS011;9021;50.882;4.326;2023-02-28T13:18:38;6.45;;;1.67;;
17794;SDS011;9021;50.882;4.326;2023-02-28T13:21:26;4.63;;;1.70;;
17794;SDS011;9021;50.882;4.326;2023-02-28T13:23:59;1.65;;;1.50;;
17794;SDS011;9021;50.882;4.326;2023-02-28T13:31:27;2.70;;;1.25;;
17794;SDS011;9021;50.882;4.326;2023-02-28T13:36:26;3.22;;;1.65;;
17794;SDS011;9021;50.882;4.326;2023-02-28T13:44:08;4.05;;;1.45;;
17794;SDS011;9021;50.882;4.326;2023-02-28T13:49:18;4.13;;;1.90;;
17794;SDS011;9021;50.882;4.326;2023-02-28T13:51:47;12.05;;;2.58;;
17794;SDS011;9021;50.882;4.326;2023-02-28T14:02:40;2.25;;;1.50;;
17794;SDS011;9021;50.882;4.326;2023-02-28T14:05:24;2.63;;;1.63;;
17794;SDS011;9021;50.882;4.326;2023-02-28T14:08:08;2.10;;;1.45;;
17794;SDS011;9021;50.882;4.326;2023-02-28T14:10:46;2.70;;;1.77;;
17794;SDS011;9021;50.882;4.326;2023-02-28T14:16:05;3.65;;;1.52;;
17794;SDS011;9021;50.882;4.326;2023-02-28T14:18:34;5.38;;;1.83;;
17794;SDS011;9021;50.882;4.326;2023-02-28T14:26:32;6.72;;;3.17;;
17794;SDS011;9021;50.882;4.326;2023-02-28T14:32:03;2.40;;;1.50;;
17794;SDS011;9021;50.882;4.326;2023-02-28T14:34:53;2.42;;;2.00;;
17794;SDS011;9021;50.882;4.326;2023-02-28T14:37:36;2.63;;;1.70;;
17794;SDS011;9021;50.882;4.326;2023-02-28T14:40:04;2.00;;;1.80;;
17794;SDS011;9021;50.882;4.326;2023-02-28T14:42:38;3.75;;;1.60;;
17794;SDS011;9021;50.882;4.326;2023-02-28T14:45:16;3.38;;;1.77;;
17794;SDS011;9021;50.882;4.326;2023-02-28T14:47:43;5.28;;;2.15;;
17794;SDS011;9021;50.882;4.326;2023-02-28T14:50:17;3.38;;;1.98;;
17794;SDS011;9021;50.882;4.326;2023-02-28T14:52:47;4.55;;;1.90;;
17794;SDS011;9021;50.882;4.326;2023-02-28T14:55:17;2.08;;;1.80;;
17794;SDS011;9021;50.882;4.326;2023-02-28T14:57:52;4.97;;;2.20;;
17794;SDS011;9021;50.882;4.326;2023-02-28T15:02:50;3.75;;;2.22;;
17794;SDS011;9021;50.882;4.326;2023-02-28T15:05:20;2.75;;;2.33;;
17794;SDS011;9021;50.882;4.326;2023-02-28T15:08:00;3.42;;;2.00;;
17794;SDS011;9021;50.882;4.326;2023-02-28T15:10:38;3.50;;;2.42;;
17794;SDS011;9021;50.882;4.326;2023-02-28T15:13:06;4.57;;;2.08;;
17794;SDS011;9021;50.882;4.326;2023-02-28T15:18:31;6.93;;;1.92;;
17794;SDS011;9021;50.882;4.326;2023-02-28T15:21:03;6.80;;;2.70;;
17794;SDS011;9021;50.882;4.326;2023-02-28T15:23:32;4.95;;;2.13;;
17794;SDS011;9021;50.882;4.326;2023-02-28T15:25:59;2.70;;;1.70;;
17794;SDS011;9021;50.882;4.326;2023-02-28T15:28:26;2.83;;;2.10;;
17794;SDS011;9021;50.882;4.326;2023-02-28T15:30:57;3.83;;;2.22;;
17794;SDS011;9021;50.882;4.326;2023-02-28T15:33:28;3.25;;;1.85;;
17794;SDS011;9021;50.882;4.326;2023-02-28T15:38:40;3.33;;;2.20;;
17794;SDS011;9021;50.882;4.326;2023-02-28T15:41:25;6.38;;;2.17;;
17794;SDS011;9021;50.882;4.326;2023-02-28T15:46:53;4.00;;;2.35;;
17794;SDS011;9021;50.882;4.326;2023-02-28T15:49:21;2.78;;;2.10;;
17794;SDS011;9021;50.882;4.326;2023-02-28T15:51:48;2.85;;;2.25;;
17794;SDS011;9021;50.882;4.326;2023-02-28T15:54:22;3.72;;;1.88;;
17794;SDS011;9021;50.882;4.326;2023-02-28T15:56:52;2.30;;;1.90;;
17794;SDS011;9021;50.882;4.326;2023-02-28T15:59:22;3.85;;;2.13;;
17794;SDS011;9021;50.882;4.326;2023-02-28T16:04:36;2.70;;;2.00;;
17794;SDS011;9021;50.882;4.326;2023-02-28T16:07:05;2.63;;;2.38;;
17794;SDS011;9021;50.882;4.326;2023-02-28T16:09:37;2.15;;;1.92;;
17794;SDS011;9021;50.882;4.326;2023-02-28T16:12:03;3.05;;;1.90;;
17794;SDS011;9021;50.882;4.326;2023-02-28T16:14:30;3.42;;;2.00;;
17794;SDS011;9021;50.882;4.326;2023-02-28T16:16:56;2.92;;;2.28;;
17794;SDS011;9021;50.882;4.326;2023-02-28T16:19:30;4.25;;;2.00;;
17794;SDS011;9021;50.882;4.326;2023-02-28T16:21:57;2.42;;;2.05;;
17794;SDS011;9021;50.882;4.326;2023-02-28T16:24:22;3.40;;;2.10;;
17794;SDS011;9021;50.882;4.326;2023-02-28T16:26:48;6.38;;;2.17;;
17794;SDS011;9021;50.882;4.326;2023-02-28T16:29:37;3.38;;;2.13;;
17794;SDS011;9021;50.882;4.326;2023-02-28T16:32:05;3.35;;;2.05;;
17794;SDS011;9021;50.882;4.326;2023-02-28T16:34:31;2.70;;;1.95;;
17794;SDS011;9021;50.882;4.326;2023-02-28T16:36:57;3.83;;;2.25;;
17794;SDS011;9021;50.882;4.326;2023-02-28T16:39:23;2.83;;;2.22;;
17794;SDS011;9021;50.882;4.326;2023-02-28T16:41:49;5.78;;;2.83;;
17794;SDS011;9021;50.882;4.326;2023-02-28T16:44:27;5.45;;;2.60;;
17794;SDS011;9021;50.882;4.326;2023-02-28T16:46:59;3.20;;;2.30;;
17794;SDS011;9021;50.882;4.326;2023-02-28T16:49:25;5.18;;;2.28;;
17794;SDS011;9021;50.882;4.326;2023-02-28T16:51:51;5.00;;;2.00;;
17794;SDS011;9021;50.882;4.326;2023-02-28T16:54:17;3.60;;;2.58;;
17794;SDS011;9021;50.882;4.326;2023-02-28T16:56:44;3.20;;;2.03;;
17794;SDS011;9021;50.882;4.326;2023-02-28T16:59:10;3.28;;;2.55;;
17794;SDS011;9021;50.882;4.326;2023-02-28T17:01:36;5.40;;;2.22;;
17794;SDS011;9021;50.882;4.326;2023-02-28T17:04:02;6.78;;;2.58;;
17794;SDS011;9021;50.882;4.326;2023-02-28T17:06:28;4.07;;;2.20;;
17794;SDS011;9021;50.882;4.326;2023-02-28T17:08:55;5.60;;;2.30;;
17794;SDS011;9021;50.882;4.326;2023-02-28T17:11:23;2.63;;;2.17;;
17794;SDS011;9021;50.882;4.326;2023-02-28T17:13:49;5.70;;;2.58;;
17794;SDS011;9021;50.882;4.326;2023-02-28T17:18:54;3.83;;;2.53;;
17794;SDS011;9021;50.882;4.326;2023-02-28T17:21:23;3.92;;;2.60;;
17794;SDS011;9021;50.882;4.326;2023-02-28T17:23:48;2.92;;;2.38;;
17794;SDS011;9021;50.882;4.326;2023-02-28T17:26:15;5.82;;;2.50;;
17794;SDS011;9021;50.882;4.326;2023-02-28T17:28:44;3.80;;;2.35;;
17794;SDS011;9021;50.882;4.326;2023-02-28T17:31:11;3.85;;;2.22;;
17794;SDS011;9021;50.882;4.326;2023-02-28T17:33:37;7.93;;;2.55;;
17794;SDS011;9021;50.882;4.326;2023-02-28T17:36:02;8.60;;;2.80;;
17794;SDS011;9021;50.882;4.326;2023-02-28T17:38:28;5.00;;;2.63;;
17794;SDS011;9021;50.882;4.326;2023-02-28T17:40:54;5.25;;;2.10;;
17794;SDS011;9021;50.882;4.326;2023-02-28T17:43:23;6.43;;;2.65;;
17794;SDS011;9021;50.882;4.326;2023-02-28T17:45:52;4.60;;;2.45;;
17794;SDS011;9021;50.882;4.326;2023-02-28T17:48:18;3.75;;;2.45;;
17794;SDS011;9021;50.882;4.326;2023-02-28T17:50:44;3.45;;;2.65;;
17794;SDS011;9021;50.882;4.326;2023-02-28T17:53:10;4.35;;;3.03;;
17794;SDS011;9021;50.882;4.326;2023-02-28T17:55:36;5.97;;;3.25;;
17794;SDS011;9021;50.882;4.326;2023-02-28T17:58:02;6.35;;;3.28;;
17794;SDS011;9021;50.882;4.326;2023-02-28T18:00:28;5.32;;;3.67;;
17794;SDS011;9021;50.882;4.326;2023-02-28T18:02:54;8.82;;;3.20;;
17794;SDS011;9021;50.882;4.326;2023-02-28T18:05:19;5.93;;;3.15;;
17794;SDS011;9021;50.882;4.326;2023-02-28T18:07:45;8.25;;;4.57;;
17794;SDS011;9021;50.882;4.326;2023-02-28T18:10:15;5.40;;;3.58;;
17794;SDS011;9021;50.882;4.326;2023-02-28T18:12:44;10.48;;;4.10;;
17794;SDS011;9021;50.882;4.326;2023-02-28T18:15:14;7.18;;;3.75;;
17794;SDS011;9021;50.882;4.326;2023-02-28T18:17:41;6.60;;;4.07;;